sensor_id;sensor_type;location;lat;lon;timestamp;temperature;humidity
7214;DHT22;3648;50.614;13.830;2023-04-24T00:01:38;11.70;99.90
7214;DHT22;3648;50.614;13.830;2023-04-24T00:04:05;11.70;99.90
7214;DHT22;3648;50.614;13.830;2023-04-24T00:06:32;11.70;99.90
7214;DHT22;3648;50.614;13.830;2023-04-24T00:09:00;11.70;99.90
7214;DHT22;3648;50.614;13.830;2023-04-24T00:11:28;11.70;99.90
7214;DHT22;3648;50.614;13.830;2023-04-24T00:13:55;11.70;99.90
7214;DHT22;3648;50.614;13.830;2023-04-24T00:16:23;11.70;99.90
7214;DHT22;3648;50.614;13.830;2023-04-24T00:18:50;11.70;99.90
7214;DHT22;3648;50.614;13.830;2023-04-24T00:21:21;11.70;99.90
7214;DHT22;3648;50.614;13.830;2023-04-24T00:23:51;11.70;99.90
7214;DHT22;3648;50.614;13.830;2023-04-24T00:26:35;11.70;99.90
7214;DHT22;3648;50.614;13.830;2023-04-24T00:29:02;11.70;99.90
7214;DHT22;3648;50.614;13.830;2023-04-24T00:31:30;11.70;99.90
7214;DHT22;3648;50.614;13.830;2023-04-24T00:34:00;11.70;99.90
7214;DHT22;3648;50.614;13.830;2023-04-24T00:36:27;11.70;99.90
7214;DHT22;3648;50.614;13.830;2023-04-24T00:38:54;11.70;99.90
7214;DHT22;3648;50.614;13.830;2023-04-24T00:41:21;11.70;99.90
7214;DHT22;3648;50.614;13.830;2023-04-24T00:43:48;11.70;99.90
7214;DHT22;3648;50.614;13.830;2023-04-24T00:46:16;11.70;99.90
7214;DHT22;3648;50.614;13.830;2023-04-24T00:48:44;11.70;99.90
7214;DHT22;3648;50.614;13.830;2023-04-24T00:51:11;11.70;99.90
7214;DHT22;3648;50.614;13.830;2023-04-24T00:53:38;11.70;99.90
7214;DHT22;3648;50.614;13.830;2023-04-24T00:56:05;11.70;99.90
7214;DHT22;3648;50.614;13.830;2023-04-24T00:58:32;11.70;99.90
7214;DHT22;3648;50.614;13.830;2023-04-24T01:01:00;11.70;99.90
7214;DHT22;3648;50.614;13.830;2023-04-24T01:03:29;11.70;99.90
7214;DHT22;3648;50.614;13.830;2023-04-24T01:05:58;11.70;99.90
7214;DHT22;3648;50.614;13.830;2023-04-24T01:08:26;11.60;99.90
7214;DHT22;3648;50.614;13.830;2023-04-24T01:10:55;11.60;99.90
7214;DHT22;3648;50.614;13.830;2023-04-24T01:13:23;11.60;99.90
7214;DHT22;3648;50.614;13.830;2023-04-24T01:15:50;11.50;99.90
7214;DHT22;3648;50.614;13.830;2023-04-24T01:18:17;11.50;99.90
7214;DHT22;3648;50.614;13.830;2023-04-24T01:20:45;11.50;99.90
7214;DHT22;3648;50.614;13.830;2023-04-24T01:23:14;11.50;99.90
7214;DHT22;3648;50.614;13.830;2023-04-24T01:25:41;11.40;99.90
7214;DHT22;3648;50.614;13.830;2023-04-24T01:28:08;11.40;99.90
7214;DHT22;3648;50.614;13.830;2023-04-24T01:30:35;11.30;99.90
7214;DHT22;3648;50.614;13.830;2023-04-24T01:33:02;11.20;99.90
7214;DHT22;3648;50.614;13.830;2023-04-24T01:35:29;11.20;99.90
7214;DHT22;3648;50.614;13.830;2023-04-24T01:37:56;11.10;99.90
7214;DHT22;3648;50.614;13.830;2023-04-24T01:40:24;11.00;99.90
7214;DHT22;3648;50.614;13.830;2023-04-24T01:42:51;10.90;99.90
7214;DHT22;3648;50.614;13.830;2023-04-24T01:45:19;10.90;99.90
7214;DHT22;3648;50.614;13.830;2023-04-24T01:47:46;10.90;99.90
7214;DHT22;3648;50.614;13.830;2023-04-24T01:50:14;11.00;99.90
7214;DHT22;3648;50.614;13.830;2023-04-24T01:52:41;10.90;99.90
7214;DHT22;3648;50.614;13.830;2023-04-24T01:55:09;11.00;99.90
7214;DHT22;3648;50.614;13.830;2023-04-24T01:57:38;11.00;99.90
7214;DHT22;3648;50.614;13.830;2023-04-24T02:00:06;10.90;99.90
7214;DHT22;3648;50.614;13.830;2023-04-24T02:02:34;11.00;99.90
7214;DHT22;3648;50.614;13.830;2023-04-24T02:05:00;11.00;99.90
7214;DHT22;3648;50.614;13.830;2023-04-24T02:07:28;11.00;99.90
7214;DHT22;3648;50.614;13.830;2023-04-24T02:09:55;10.90;99.90
7214;DHT22;3648;50.614;13.830;2023-04-24T02:12:22;10.80;99.90
7214;DHT22;3648;50.614;13.830;2023-04-24T02:14:50;10.70;99.90
7214;DHT22;3648;50.614;13.830;2023-04-24T02:17:17;10.70;99.90
7214;DHT22;3648;50.614;13.830;2023-04-24T02:19:44;10.70;99.90
7214;DHT22;3648;50.614;13.830;2023-04-24T02:22:12;10.70;99.90
7214;DHT22;3648;50.614;13.830;2023-04-24T02:24:39;10.70;99.90
7214;DHT22;3648;50.614;13.830;2023-04-24T02:27:06;10.80;99.90
7214;DHT22;3648;50.614;13.830;2023-04-24T02:29:33;10.70;99.90
7214;DHT22;3648;50.614;13.830;2023-04-24T02:32:01;10.80;99.90
7214;DHT22;3648;50.614;13.830;2023-04-24T02:34:28;10.80;99.90
7214;DHT22;3648;50.614;13.830;2023-04-24T02:36:55;10.70;99.90
7214;DHT22;3648;50.614;13.830;2023-04-24T02:39:22;10.80;99.90
7214;DHT22;3648;50.614;13.830;2023-04-24T02:41:49;10.80;99.90
7214;DHT22;3648;50.614;13.830;2023-04-24T02:44:16;10.70;99.90
7214;DHT22;3648;50.614;13.830;2023-04-24T02:46:43;10.70;99.90
7214;DHT22;3648;50.614;13.830;2023-04-24T02:49:12;10.70;99.90
7214;DHT22;3648;50.614;13.830;2023-04-24T02:51:39;10.70;99.90
7214;DHT22;3648;50.614;13.830;2023-04-24T02:54:07;10.70;99.90
7214;DHT22;3648;50.614;13.830;2023-04-24T02:56:35;10.70;99.90
7214;DHT22;3648;50.614;13.830;2023-04-24T02:59:02;10.70;99.90
7214;DHT22;3648;50.614;13.830;2023-04-24T03:01:29;10.70;99.90
7214;DHT22;3648;50.614;13.830;2023-04-24T03:03:56;10.70;99.90
7214;DHT22;3648;50.614;13.830;2023-04-24T03:06:25;10.70;99.90
7214;DHT22;3648;50.614;13.830;2023-04-24T03:08:52;10.70;99.90
7214;DHT22;3648;50.614;13.830;2023-04-24T03:11:19;10.70;99.90
7214;DHT22;3648;50.614;13.830;2023-04-24T03:13:46;10.70;99.90
7214;DHT22;3648;50.614;13.830;2023-04-24T03:16:13;10.70;99.90
7214;DHT22;3648;50.614;13.830;2023-04-24T03:18:40;10.70;99.90
7214;DHT22;3648;50.614;13.830;2023-04-24T03:21:07;10.70;99.90
7214;DHT22;3648;50.614;13.830;2023-04-24T03:23:36;10.70;99.90
7214;DHT22;3648;50.614;13.830;2023-04-24T03:26:03;10.70;99.90
7214;DHT22;3648;50.614;13.830;2023-04-24T03:28:30;10.70;99.90
7214;DHT22;3648;50.614;13.830;2023-04-24T03:30:57;10.70;99.90
7214;DHT22;3648;50.614;13.830;2023-04-24T03:33:24;10.70;99.90
7214;DHT22;3648;50.614;13.830;2023-04-24T03:35:51;10.70;99.90
7214;DHT22;3648;50.614;13.830;2023-04-24T03:38:18;10.70;99.90
7214;DHT22;3648;50.614;13.830;2023-04-24T03:40:46;10.70;99.90
7214;DHT22;3648;50.614;13.830;2023-04-24T03:43:13;10.70;99.90
7214;DHT22;3648;50.614;13.830;2023-04-24T03:45:40;10.70;99.90
7214;DHT22;3648;50.614;13.830;2023-04-24T03:48:07;10.70;99.90
7214;DHT22;3648;50.614;13.830;2023-04-24T03:50:34;10.70;99.90
7214;DHT22;3648;50.614;13.830;2023-04-24T03:53:01;10.70;99.90
7214;DHT22;3648;50.614;13.830;2023-04-24T03:55:29;10.70;99.90
7214;DHT22;3648;50.614;13.830;2023-04-24T03:57:57;10.70;99.90
7214;DHT22;3648;50.614;13.830;2023-04-24T04:00:24;10.80;99.90
7214;DHT22;3648;50.614;13.830;2023-04-24T04:02:51;10.80;99.90
7214;DHT22;3648;50.614;13.830;2023-04-24T04:05:18;10.80;99.90
7214;DHT22;3648;50.614;13.830;2023-04-24T04:07:45;10.80;99.90
7214;DHT22;3648;50.614;13.830;2023-04-24T04:10:12;10.80;99.90
7214;DHT22;3648;50.614;13.830;2023-04-24T04:12:39;10.80;99.90
7214;DHT22;3648;50.614;13.830;2023-04-24T04:15:08;10.70;99.90
7214;DHT22;3648;50.614;13.830;2023-04-24T04:17:36;10.70;99.90
7214;DHT22;3648;50.614;13.830;2023-04-24T04:20:04;10.70;99.90
7214;DHT22;3648;50.614;13.830;2023-04-24T04:22:34;10.70;99.90
7214;DHT22;3648;50.614;13.830;2023-04-24T04:25:01;10.70;99.90
7214;DHT22;3648;50.614;13.830;2023-04-24T04:27:28;10.60;99.90
7214;DHT22;3648;50.614;13.830;2023-04-24T04:29:57;10.70;99.90
7214;DHT22;3648;50.614;13.830;2023-04-24T04:32:26;10.70;99.90
7214;DHT22;3648;50.614;13.830;2023-04-24T04:34:53;10.70;99.90
7214;DHT22;3648;50.614;13.830;2023-04-24T04:37:20;10.80;99.90
7214;DHT22;3648;50.614;13.830;2023-04-24T04:39:47;10.80;99.90
7214;DHT22;3648;50.614;13.830;2023-04-24T04:42:14;10.80;99.90
7214;DHT22;3648;50.614;13.830;2023-04-24T04:44:41;10.80;99.90
7214;DHT22;3648;50.614;13.830;2023-04-24T04:47:08;10.80;99.90
7214;DHT22;3648;50.614;13.830;2023-04-24T04:49:37;10.80;99.90
7214;DHT22;3648;50.614;13.830;2023-04-24T04:52:05;10.80;99.90
7214;DHT22;3648;50.614;13.830;2023-04-24T04:54:32;10.80;99.90
7214;DHT22;3648;50.614;13.830;2023-04-24T04:56:59;10.80;99.90
7214;DHT22;3648;50.614;13.830;2023-04-24T04:59:26;10.80;99.90
7214;DHT22;3648;50.614;13.830;2023-04-24T05:01:53;10.90;99.90
7214;DHT22;3648;50.614;13.830;2023-04-24T05:04:20;10.90;99.90
7214;DHT22;3648;50.614;13.830;2023-04-24T05:06:48;10.90;99.90
7214;DHT22;3648;50.614;13.830;2023-04-24T05:09:16;11.00;99.90
7214;DHT22;3648;50.614;13.830;2023-04-24T05:11:44;11.10;99.90
7214;DHT22;3648;50.614;13.830;2023-04-24T05:14:11;11.10;99.90
7214;DHT22;3648;50.614;13.830;2023-04-24T05:16:39;11.20;99.90
7214;DHT22;3648;50.614;13.830;2023-04-24T05:19:06;11.20;99.90
7214;DHT22;3648;50.614;13.830;2023-04-24T05:21:33;11.30;99.90
7214;DHT22;3648;50.614;13.830;2023-04-24T05:24:02;11.30;99.90
7214;DHT22;3648;50.614;13.830;2023-04-24T05:26:29;11.40;99.90
7214;DHT22;3648;50.614;13.830;2023-04-24T05:28:56;11.40;99.90
7214;DHT22;3648;50.614;13.830;2023-04-24T05:31:23;11.50;99.90
7214;DHT22;3648;50.614;13.830;2023-04-24T05:33:51;11.50;99.90
7214;DHT22;3648;50.614;13.830;2023-04-24T05:36:18;11.50;99.90
7214;DHT22;3648;50.614;13.830;2023-04-24T05:38:45;11.60;99.90
7214;DHT22;3648;50.614;13.830;2023-04-24T05:41:13;11.60;99.90
7214;DHT22;3648;50.614;13.830;2023-04-24T05:43:40;11.60;99.90
7214;DHT22;3648;50.614;13.830;2023-04-24T05:46:07;11.50;99.90
7214;DHT22;3648;50.614;13.830;2023-04-24T05:48:34;11.60;99.90
7214;DHT22;3648;50.614;13.830;2023-04-24T05:51:01;11.60;99.90
7214;DHT22;3648;50.614;13.830;2023-04-24T05:53:28;11.60;99.90
7214;DHT22;3648;50.614;13.830;2023-04-24T05:55:56;11.60;99.90
7214;DHT22;3648;50.614;13.830;2023-04-24T05:58:24;11.70;99.90
7214;DHT22;3648;50.614;13.830;2023-04-24T06:00:51;11.70;99.90
7214;DHT22;3648;50.614;13.830;2023-04-24T06:03:18;11.80;99.90
7214;DHT22;3648;50.614;13.830;2023-04-24T06:05:45;11.80;99.90
7214;DHT22;3648;50.614;13.830;2023-04-24T06:08:12;11.90;99.90
7214;DHT22;3648;50.614;13.830;2023-04-24T06:10:39;11.90;99.90
7214;DHT22;3648;50.614;13.830;2023-04-24T06:13:06;12.00;99.90
7214;DHT22;3648;50.614;13.830;2023-04-24T06:15:35;12.10;99.90
7214;DHT22;3648;50.614;13.830;2023-04-24T06:18:02;12.10;99.90
7214;DHT22;3648;50.614;13.830;2023-04-24T06:20:29;12.20;99.90
7214;DHT22;3648;50.614;13.830;2023-04-24T06:22:56;12.20;99.90
7214;DHT22;3648;50.614;13.830;2023-04-24T06:25:24;12.30;99.90
7214;DHT22;3648;50.614;13.830;2023-04-24T06:27:52;12.30;99.90
7214;DHT22;3648;50.614;13.830;2023-04-24T06:30:19;12.40;99.90
7214;DHT22;3648;50.614;13.830;2023-04-24T06:32:47;12.50;99.90
7214;DHT22;3648;50.614;13.830;2023-04-24T06:35:14;12.50;99.90
7214;DHT22;3648;50.614;13.830;2023-04-24T06:37:42;12.50;99.90
7214;DHT22;3648;50.614;13.830;2023-04-24T06:40:09;12.50;99.90
7214;DHT22;3648;50.614;13.830;2023-04-24T06:42:36;12.60;99.90
7214;DHT22;3648;50.614;13.830;2023-04-24T06:45:04;12.70;99.90
7214;DHT22;3648;50.614;13.830;2023-04-24T06:47:32;12.70;99.90
7214;DHT22;3648;50.614;13.830;2023-04-24T06:50:00;12.80;99.90
7214;DHT22;3648;50.614;13.830;2023-04-24T06:52:27;12.80;99.90
7214;DHT22;3648;50.614;13.830;2023-04-24T06:55:00;12.80;99.90
7214;DHT22;3648;50.614;13.830;2023-04-24T06:57:27;12.90;99.90
7214;DHT22;3648;50.614;13.830;2023-04-24T06:59:56;12.90;99.90
7214;DHT22;3648;50.614;13.830;2023-04-24T07:02:24;12.90;99.90
7214;DHT22;3648;50.614;13.830;2023-04-24T07:04:51;12.90;99.90
7214;DHT22;3648;50.614;13.830;2023-04-24T07:07:20;12.90;99.90
7214;DHT22;3648;50.614;13.830;2023-04-24T07:09:47;12.90;99.90
7214;DHT22;3648;50.614;13.830;2023-04-24T07:12:14;12.90;99.90
7214;DHT22;3648;50.614;13.830;2023-04-24T07:14:42;12.90;99.90
7214;DHT22;3648;50.614;13.830;2023-04-24T07:17:09;12.90;99.90
7214;DHT22;3648;50.614;13.830;2023-04-24T07:19:38;12.90;99.90
7214;DHT22;3648;50.614;13.830;2023-04-24T07:22:05;12.90;99.90
7214;DHT22;3648;50.614;13.830;2023-04-24T07:24:34;13.00;99.90
7214;DHT22;3648;50.614;13.830;2023-04-24T07:27:01;13.00;99.90
7214;DHT22;3648;50.614;13.830;2023-04-24T07:29:27;13.00;99.90
7214;DHT22;3648;50.614;13.830;2023-04-24T07:31:55;13.00;99.90
7214;DHT22;3648;50.614;13.830;2023-04-24T07:34:22;13.00;99.90
7214;DHT22;3648;50.614;13.830;2023-04-24T07:36:48;13.00;99.90
7214;DHT22;3648;50.614;13.830;2023-04-24T07:39:15;13.10;99.90
7214;DHT22;3648;50.614;13.830;2023-04-24T07:41:44;12.90;99.90
7214;DHT22;3648;50.614;13.830;2023-04-24T07:44:11;12.90;99.90
7214;DHT22;3648;50.614;13.830;2023-04-24T07:46:37;12.90;99.90
7214;DHT22;3648;50.614;13.830;2023-04-24T07:49:04;12.80;99.90
7214;DHT22;3648;50.614;13.830;2023-04-24T07:51:31;12.90;99.90
7214;DHT22;3648;50.614;13.830;2023-04-24T07:54:03;12.90;99.90
7214;DHT22;3648;50.614;13.830;2023-04-24T07:56:31;12.90;99.90
7214;DHT22;3648;50.614;13.830;2023-04-24T07:58:59;12.90;99.90
7214;DHT22;3648;50.614;13.830;2023-04-24T08:01:27;13.00;99.90
7214;DHT22;3648;50.614;13.830;2023-04-24T08:03:54;13.00;99.90
7214;DHT22;3648;50.614;13.830;2023-04-24T08:06:21;13.00;99.90
7214;DHT22;3648;50.614;13.830;2023-04-24T08:08:48;12.90;99.90
7214;DHT22;3648;50.614;13.830;2023-04-24T08:11:17;13.00;99.90
7214;DHT22;3648;50.614;13.830;2023-04-24T08:13:44;13.00;99.90
7214;DHT22;3648;50.614;13.830;2023-04-24T08:16:12;13.10;99.90
7214;DHT22;3648;50.614;13.830;2023-04-24T08:18:39;13.10;99.90
7214;DHT22;3648;50.614;13.830;2023-04-24T08:21:06;13.10;99.90
7214;DHT22;3648;50.614;13.830;2023-04-24T08:23:33;13.20;99.90
7214;DHT22;3648;50.614;13.830;2023-04-24T08:26:00;13.20;99.90
7214;DHT22;3648;50.614;13.830;2023-04-24T08:28:27;13.20;99.90
7214;DHT22;3648;50.614;13.830;2023-04-24T08:30:54;13.30;99.90
7214;DHT22;3648;50.614;13.830;2023-04-24T08:33:22;13.30;99.90
7214;DHT22;3648;50.614;13.830;2023-04-24T08:35:49;13.30;99.90
7214;DHT22;3648;50.614;13.830;2023-04-24T08:38:17;13.40;99.90
7214;DHT22;3648;50.614;13.830;2023-04-24T08:40:44;13.50;99.90
7214;DHT22;3648;50.614;13.830;2023-04-24T08:43:15;13.50;99.90
7214;DHT22;3648;50.614;13.830;2023-04-24T08:45:42;13.60;99.90
7214;DHT22;3648;50.614;13.830;2023-04-24T08:48:09;13.60;99.90
7214;DHT22;3648;50.614;13.830;2023-04-24T08:50:38;13.60;99.90
7214;DHT22;3648;50.614;13.830;2023-04-24T08:53:08;13.60;99.90
7214;DHT22;3648;50.614;13.830;2023-04-24T08:55:35;13.60;99.90
7214;DHT22;3648;50.614;13.830;2023-04-24T08:58:03;13.50;99.90
7214;DHT22;3648;50.614;13.830;2023-04-24T09:00:31;13.60;99.90
7214;DHT22;3648;50.614;13.830;2023-04-24T09:03:01;13.50;99.90
7214;DHT22;3648;50.614;13.830;2023-04-24T09:05:29;13.50;99.90
7214;DHT22;3648;50.614;13.830;2023-04-24T09:07:59;13.50;99.90
7214;DHT22;3648;50.614;13.830;2023-04-24T09:10:28;13.50;99.90
7214;DHT22;3648;50.614;13.830;2023-04-24T09:12:56;13.50;99.90
7214;DHT22;3648;50.614;13.830;2023-04-24T09:15:27;13.50;99.90
7214;DHT22;3648;50.614;13.830;2023-04-24T09:17:55;13.50;99.90
7214;DHT22;3648;50.614;13.830;2023-04-24T09:20:22;13.50;99.90
7214;DHT22;3648;50.614;13.830;2023-04-24T09:22:53;13.50;99.90
7214;DHT22;3648;50.614;13.830;2023-04-24T09:25:23;13.50;99.90
7214;DHT22;3648;50.614;13.830;2023-04-24T09:27:53;13.60;99.90
7214;DHT22;3648;50.614;13.830;2023-04-24T09:30:21;13.70;99.90
7214;DHT22;3648;50.614;13.830;2023-04-24T09:32:48;13.60;99.90
7214;DHT22;3648;50.614;13.830;2023-04-24T09:35:15;13.50;99.90
7214;DHT22;3648;50.614;13.830;2023-04-24T09:37:43;13.60;99.90
7214;DHT22;3648;50.614;13.830;2023-04-24T09:40:12;13.50;99.90
7214;DHT22;3648;50.614;13.830;2023-04-24T09:42:43;13.50;99.90
7214;DHT22;3648;50.614;13.830;2023-04-24T09:45:11;13.50;99.90
7214;DHT22;3648;50.614;13.830;2023-04-24T09:47:39;13.60;99.90
7214;DHT22;3648;50.614;13.830;2023-04-24T09:50:11;13.60;99.90
7214;DHT22;3648;50.614;13.830;2023-04-24T09:52:42;13.50;99.90
7214;DHT22;3648;50.614;13.830;2023-04-24T09:55:20;13.60;99.90
7214;DHT22;3648;50.614;13.830;2023-04-24T09:57:49;13.60;99.90
7214;DHT22;3648;50.614;13.830;2023-04-24T10:00:24;13.70;99.90
7214;DHT22;3648;50.614;13.830;2023-04-24T10:02:56;13.90;99.90
7214;DHT22;3648;50.614;13.830;2023-04-24T10:05:24;14.00;99.90
7214;DHT22;3648;50.614;13.830;2023-04-24T10:07:56;14.10;99.90
7214;DHT22;3648;50.614;13.830;2023-04-24T10:10:23;14.10;99.90
7214;DHT22;3648;50.614;13.830;2023-04-24T10:12:52;14.10;99.90
7214;DHT22;3648;50.614;13.830;2023-04-24T10:15:20;14.10;99.90
7214;DHT22;3648;50.614;13.830;2023-04-24T10:17:48;14.20;99.90
7214;DHT22;3648;50.614;13.830;2023-04-24T10:20:19;14.20;99.90
7214;DHT22;3648;50.614;13.830;2023-04-24T10:22:48;14.30;99.90
7214;DHT22;3648;50.614;13.830;2023-04-24T10:25:19;14.40;99.90
7214;DHT22;3648;50.614;13.830;2023-04-24T10:27:47;14.50;99.90
7214;DHT22;3648;50.614;13.830;2023-04-24T10:30:16;14.70;99.90
7214;DHT22;3648;50.614;13.830;2023-04-24T10:32:44;14.90;99.90
7214;DHT22;3648;50.614;13.830;2023-04-24T10:35:13;15.10;99.90
7214;DHT22;3648;50.614;13.830;2023-04-24T10:37:42;15.20;99.90
7214;DHT22;3648;50.614;13.830;2023-04-24T10:40:11;15.30;99.90
7214;DHT22;3648;50.614;13.830;2023-04-24T10:42:40;15.40;99.90
7214;DHT22;3648;50.614;13.830;2023-04-24T10:45:17;15.40;99.90
7214;DHT22;3648;50.614;13.830;2023-04-24T10:48:02;15.50;99.90
7214;DHT22;3648;50.614;13.830;2023-04-24T10:50:30;15.40;99.90
7214;DHT22;3648;50.614;13.830;2023-04-24T10:53:15;15.40;99.90
7214;DHT22;3648;50.614;13.830;2023-04-24T10:55:44;15.50;99.90
7214;DHT22;3648;50.614;13.830;2023-04-24T10:58:12;15.50;99.90
7214;DHT22;3648;50.614;13.830;2023-04-24T11:00:42;15.50;99.90
7214;DHT22;3648;50.614;13.830;2023-04-24T11:03:24;15.50;99.90
7214;DHT22;3648;50.614;13.830;2023-04-24T11:06:02;15.50;99.90
7214;DHT22;3648;50.614;13.830;2023-04-24T11:08:32;15.50;99.90
7214;DHT22;3648;50.614;13.830;2023-04-24T11:11:01;15.40;99.90
7214;DHT22;3648;50.614;13.830;2023-04-24T11:14:03;15.30;99.90
7214;DHT22;3648;50.614;13.830;2023-04-24T11:16:52;15.30;99.90
7214;DHT22;3648;50.614;13.830;2023-04-24T11:19:24;15.20;99.90
7214;DHT22;3648;50.614;13.830;2023-04-24T11:21:57;14.90;99.90
7214;DHT22;3648;50.614;13.830;2023-04-24T11:24:27;14.80;99.90
7214;DHT22;3648;50.614;13.830;2023-04-24T11:26:55;14.80;99.90
7214;DHT22;3648;50.614;13.830;2023-04-24T11:29:23;14.80;99.90
7214;DHT22;3648;50.614;13.830;2023-04-24T11:32:17;14.70;99.90
7214;DHT22;3648;50.614;13.830;2023-04-24T11:34:46;14.80;99.90
7214;DHT22;3648;50.614;13.830;2023-04-24T11:37:14;14.80;99.90
7214;DHT22;3648;50.614;13.830;2023-04-24T11:39:41;14.80;99.90
7214;DHT22;3648;50.614;13.830;2023-04-24T11:42:09;14.90;99.90
7214;DHT22;3648;50.614;13.830;2023-04-24T11:44:36;15.00;99.90
7214;DHT22;3648;50.614;13.830;2023-04-24T11:47:05;15.10;99.90
7214;DHT22;3648;50.614;13.830;2023-04-24T11:49:34;15.20;99.90
7214;DHT22;3648;50.614;13.830;2023-04-24T11:52:04;15.20;99.90
7214;DHT22;3648;50.614;13.830;2023-04-24T11:54:32;15.20;99.90
7214;DHT22;3648;50.614;13.830;2023-04-24T11:56:59;15.30;99.90
7214;DHT22;3648;50.614;13.830;2023-04-24T11:59:26;15.50;99.90
7214;DHT22;3648;50.614;13.830;2023-04-24T12:01:53;15.50;99.90
7214;DHT22;3648;50.614;13.830;2023-04-24T12:04:20;15.70;99.90
7214;DHT22;3648;50.614;13.830;2023-04-24T12:07:03;15.70;99.90
7214;DHT22;3648;50.614;13.830;2023-04-24T12:09:41;15.70;99.90
7214;DHT22;3648;50.614;13.830;2023-04-24T12:12:08;15.70;99.90
7214;DHT22;3648;50.614;13.830;2023-04-24T12:14:48;15.70;99.90
7214;DHT22;3648;50.614;13.830;2023-04-24T12:17:16;15.70;99.90
7214;DHT22;3648;50.614;13.830;2023-04-24T12:19:47;15.70;99.90
7214;DHT22;3648;50.614;13.830;2023-04-24T12:22:16;15.70;99.90
7214;DHT22;3648;50.614;13.830;2023-04-24T12:24:57;15.70;99.90
7214;DHT22;3648;50.614;13.830;2023-04-24T12:27:24;15.60;99.90
7214;DHT22;3648;50.614;13.830;2023-04-24T12:29:56;15.60;99.90
7214;DHT22;3648;50.614;13.830;2023-04-24T12:32:23;15.50;99.90
7214;DHT22;3648;50.614;13.830;2023-04-24T12:34:52;15.40;99.90
7214;DHT22;3648;50.614;13.830;2023-04-24T12:37:20;15.30;99.90
7214;DHT22;3648;50.614;13.830;2023-04-24T12:40:02;15.40;99.90
7214;DHT22;3648;50.614;13.830;2023-04-24T12:42:30;15.60;99.90
7214;DHT22;3648;50.614;13.830;2023-04-24T12:45:03;15.90;99.90
7214;DHT22;3648;50.614;13.830;2023-04-24T12:47:31;16.20;99.90
7214;DHT22;3648;50.614;13.830;2023-04-24T12:49:59;16.30;99.90
7214;DHT22;3648;50.614;13.830;2023-04-24T12:52:29;16.40;99.90
7214;DHT22;3648;50.614;13.830;2023-04-24T12:54:58;16.40;99.90
7214;DHT22;3648;50.614;13.830;2023-04-24T12:57:26;16.40;99.90
7214;DHT22;3648;50.614;13.830;2023-04-24T12:59:54;16.40;99.90
7214;DHT22;3648;50.614;13.830;2023-04-24T13:02:21;16.30;99.90
7214;DHT22;3648;50.614;13.830;2023-04-24T13:04:49;16.30;99.90
7214;DHT22;3648;50.614;13.830;2023-04-24T13:07:16;16.20;99.90
7214;DHT22;3648;50.614;13.830;2023-04-24T13:09:47;16.20;99.90
7214;DHT22;3648;50.614;13.830;2023-04-24T13:12:14;16.20;99.90
7214;DHT22;3648;50.614;13.830;2023-04-24T13:14:41;16.20;99.90
7214;DHT22;3648;50.614;13.830;2023-04-24T13:17:08;16.10;99.90
7214;DHT22;3648;50.614;13.830;2023-04-24T13:19:38;16.00;99.90
7214;DHT22;3648;50.614;13.830;2023-04-24T13:22:05;16.00;99.90
7214;DHT22;3648;50.614;13.830;2023-04-24T13:24:33;15.90;99.90
7214;DHT22;3648;50.614;13.830;2023-04-24T13:27:02;15.80;99.90
7214;DHT22;3648;50.614;13.830;2023-04-24T13:29:29;15.70;99.90
7214;DHT22;3648;50.614;13.830;2023-04-24T13:31:56;15.50;99.90
7214;DHT22;3648;50.614;13.830;2023-04-24T13:34:24;15.50;99.90
7214;DHT22;3648;50.614;13.830;2023-04-24T13:36:52;15.40;99.90
7214;DHT22;3648;50.614;13.830;2023-04-24T13:39:19;15.30;99.90
7214;DHT22;3648;50.614;13.830;2023-04-24T13:41:46;15.30;99.90
7214;DHT22;3648;50.614;13.830;2023-04-24T13:44:16;15.30;99.90
7214;DHT22;3648;50.614;13.830;2023-04-24T13:46:44;15.20;99.90
7214;DHT22;3648;50.614;13.830;2023-04-24T13:49:12;15.20;99.90
7214;DHT22;3648;50.614;13.830;2023-04-24T13:51:39;15.10;99.90
7214;DHT22;3648;50.614;13.830;2023-04-24T13:54:06;14.90;99.90
7214;DHT22;3648;50.614;13.830;2023-04-24T13:56:34;14.90;99.90
7214;DHT22;3648;50.614;13.830;2023-04-24T13:59:01;14.90;99.90
7214;DHT22;3648;50.614;13.830;2023-04-24T14:01:29;15.00;99.90
7214;DHT22;3648;50.614;13.830;2023-04-24T14:03:56;15.00;99.90
7214;DHT22;3648;50.614;13.830;2023-04-24T14:06:23;15.00;99.90
7214;DHT22;3648;50.614;13.830;2023-04-24T14:08:51;15.10;99.90
7214;DHT22;3648;50.614;13.830;2023-04-24T14:11:18;15.10;99.90
7214;DHT22;3648;50.614;13.830;2023-04-24T14:13:45;15.20;99.90
7214;DHT22;3648;50.614;13.830;2023-04-24T14:16:13;15.20;99.90
7214;DHT22;3648;50.614;13.830;2023-04-24T14:18:41;15.20;99.90
7214;DHT22;3648;50.614;13.830;2023-04-24T14:21:08;15.20;99.90
7214;DHT22;3648;50.614;13.830;2023-04-24T14:23:35;15.30;99.90
7214;DHT22;3648;50.614;13.830;2023-04-24T14:26:02;15.40;99.90
7214;DHT22;3648;50.614;13.830;2023-04-24T14:28:29;15.50;99.90
7214;DHT22;3648;50.614;13.830;2023-04-24T14:30:56;15.70;99.90
7214;DHT22;3648;50.614;13.830;2023-04-24T14:33:23;15.90;99.90
7214;DHT22;3648;50.614;13.830;2023-04-24T14:35:51;16.00;99.90
7214;DHT22;3648;50.614;13.830;2023-04-24T14:38:18;16.00;99.90
7214;DHT22;3648;50.614;13.830;2023-04-24T14:40:45;16.00;99.90
7214;DHT22;3648;50.614;13.830;2023-04-24T14:43:12;16.00;99.90
7214;DHT22;3648;50.614;13.830;2023-04-24T14:45:39;16.10;99.90
7214;DHT22;3648;50.614;13.830;2023-04-24T14:48:07;16.10;99.90
7214;DHT22;3648;50.614;13.830;2023-04-24T14:50:34;15.90;99.90
7214;DHT22;3648;50.614;13.830;2023-04-24T14:53:03;15.90;99.90
7214;DHT22;3648;50.614;13.830;2023-04-24T14:55:30;15.70;99.90
7214;DHT22;3648;50.614;13.830;2023-04-24T14:57:59;15.60;99.90
7214;DHT22;3648;50.614;13.830;2023-04-24T15:00:27;15.50;99.90
7214;DHT22;3648;50.614;13.830;2023-04-24T15:02:54;15.50;99.90
7214;DHT22;3648;50.614;13.830;2023-04-24T15:05:21;15.40;99.90
7214;DHT22;3648;50.614;13.830;2023-04-24T15:07:48;15.50;99.90
7214;DHT22;3648;50.614;13.830;2023-04-24T15:10:16;15.60;99.90
7214;DHT22;3648;50.614;13.830;2023-04-24T15:12:44;15.70;99.90
7214;DHT22;3648;50.614;13.830;2023-04-24T15:15:11;15.70;99.90
7214;DHT22;3648;50.614;13.830;2023-04-24T15:17:38;15.70;99.90
7214;DHT22;3648;50.614;13.830;2023-04-24T15:20:06;15.80;99.90
7214;DHT22;3648;50.614;13.830;2023-04-24T15:22:34;15.60;99.90
7214;DHT22;3648;50.614;13.830;2023-04-24T15:25:01;15.50;99.90
7214;DHT22;3648;50.614;13.830;2023-04-24T15:27:40;15.40;99.90
7214;DHT22;3648;50.614;13.830;2023-04-24T15:30:08;15.30;99.90
7214;DHT22;3648;50.614;13.830;2023-04-24T15:32:35;15.30;99.90
7214;DHT22;3648;50.614;13.830;2023-04-24T15:35:03;15.30;99.90
7214;DHT22;3648;50.614;13.830;2023-04-24T15:37:30;15.30;99.90
7214;DHT22;3648;50.614;13.830;2023-04-24T15:39:57;15.40;99.90
7214;DHT22;3648;50.614;13.830;2023-04-24T15:42:25;15.50;99.90
7214;DHT22;3648;50.614;13.830;2023-04-24T15:44:53;15.30;99.90
7214;DHT22;3648;50.614;13.830;2023-04-24T15:47:20;15.30;99.90
7214;DHT22;3648;50.614;13.830;2023-04-24T15:49:47;15.20;99.90
7214;DHT22;3648;50.614;13.830;2023-04-24T15:52:14;15.00;99.90